Time;durP1;ratioP1;P1;durP2;ratioP2;P2;SDS_P1;SDS_P2;PMS_P1;PMS_P2;Temp;Humidity;BMP_temperature;BMP_pressure;BME280_temperature;BME280_humidity;BME280_pressure;Samples;Min_cycle;Max_cycle;Signal;HPM_P1;HPM_P2
2022/07/14 00:01:23;;;;;;;54.15;51.20;;;;;;;27.03;37.38;101995.91;4956171;28;20063;-83
2022/07/14 00:03:49;;;;;;;52.15;49.58;;;;;;;27.00;37.90;101985.47;4970960;28;20472;-77
2022/07/14 00:06:14;;;;;;;51.28;48.65;;;;;;;26.98;37.45;101987.72;4956377;28;20033;-82
2022/07/14 00:08:40;;;;;;;52.03;49.42;;;;;;;26.94;37.82;101975.69;4956819;28;20036;-80
2022/07/14 00:11:05;;;;;;;51.95;48.88;;;;;;;26.92;37.74;101967.66;4955859;28;20122;-83
2022/07/14 00:13:32;;;;;;;52.47;49.67;;;;;;;26.90;37.71;101969.94;4956096;28;20046;-85
2022/07/14 00:15:57;;;;;;;52.05;49.25;;;;;;;26.87;37.87;101969.78;4955939;28;20031;-83
2022/07/14 00:18:23;;;;;;;53.75;50.97;;;;;;;26.85;37.70;101975.66;4954821;28;20089;-82
2022/07/14 00:20:48;;;;;;;49.65;47.15;;;;;;;26.80;37.88;101975.81;4956262;28;20068;-75
2022/07/14 00:23:14;;;;;;;56.85;53.65;;;;;;;26.77;37.84;101970.91;4956085;28;20039;-82
2022/07/14 00:25:39;;;;;;;50.70;47.60;;;;;;;26.75;37.93;101967.63;4956335;28;20070;-82
2022/07/14 00:28:05;;;;;;;50.95;48.42;;;;;;;26.72;37.72;101971.88;4956383;28;20066;-82
2022/07/14 00:30:30;;;;;;;55.15;52.08;;;;;;;26.69;37.62;101969.75;4956033;28;20472;-83
2022/07/14 00:32:55;;;;;;;51.35;48.50;;;;;;;26.67;38.08;101974.00;4955831;28;20039;-80
2022/07/14 00:35:21;;;;;;;50.25;47.80;;;;;;;26.64;37.79;101977.41;4955901;28;20035;-81
2022/07/14 00:37:47;;;;;;;48.28;45.80;;;;;;;26.61;38.11;101962.25;4955988;28;20039;-82
2022/07/14 00:40:12;;;;;;;49.92;47.33;;;;;;;26.59;37.70;101960.94;4955653;28;20039;-82
2022/07/14 00:42:40;;;;;;;50.53;47.47;;;;;;;26.57;37.58;101961.25;4954546;28;20035;-83
2022/07/14 00:45:08;;;;;;;50.35;47.75;;;;;;;26.53;38.17;101966.63;4955649;28;20053;-83
2022/07/14 00:47:34;;;;;;;49.33;46.28;;;;;;;26.51;38.09;101968.88;4955390;28;20480;-83
2022/07/14 00:50:00;;;;;;;50.85;48.05;;;;;;;26.48;37.71;101965.91;4955537;28;20040;-78
2022/07/14 00:52:28;;;;;;;52.25;49.67;;;;;;;26.46;38.21;101965.41;4955538;28;20126;-82
2022/07/14 00:54:54;;;;;;;;;;;;;;;26.40;38.16;101964.75;4971017;28;20041;-83
2022/07/14 00:57:20;;;;;;;49.53;47.05;;;;;;;26.38;37.69;101980.06;4955488;28;20286;-80
2022/07/14 00:59:47;;;;;;;50.53;47.60;;;;;;;26.34;37.91;101986.25;4955244;28;20039;-83
2022/07/14 01:02:12;;;;;;;48.30;45.75;;;;;;;26.32;38.10;101991.28;4955280;28;20043;-82
2022/07/14 01:04:38;;;;;;;49.47;47.08;;;;;;;26.29;38.16;101977.25;4955183;28;20491;-83
2022/07/14 01:07:03;;;;;;;52.35;49.40;;;;;;;26.27;38.02;101988.66;4954316;28;20468;-82
2022/07/14 01:09:28;;;;;;;48.95;46.45;;;;;;;26.25;37.96;101987.34;4955367;28;20391;-82
2022/07/14 01:11:54;;;;;;;49.55;46.92;;;;;;;26.22;38.13;101988.78;4955278;28;20051;-76
2022/07/14 01:14:20;;;;;;;50.72;47.97;;;;;;;26.19;37.93;101989.44;4955561;28;20035;-83
2022/07/14 01:16:45;;;;;;;53.60;50.60;;;;;;;26.17;38.38;101988.94;4955412;28;20038;-83
2022/07/14 01:19:11;;;;;;;47.80;45.28;;;;;;;26.15;38.39;101993.97;4955301;28;20039;-83
2022/07/14 01:21:36;;;;;;;50.08;47.50;;;;;;;26.12;38.08;101994.59;4955076;28;20039;-81
2022/07/14 01:24:01;;;;;;;49.28;46.67;;;;;;;26.09;38.26;101993.28;4955262;28;20035;-82
2022/07/14 01:26:27;;;;;;;52.35;49.40;;;;;;;26.07;38.09;101992.78;4955575;28;20036;-83
2022/07/14 01:28:52;;;;;;;49.17;46.05;;;;;;;26.04;38.49;101998.97;4970124;28;20039;-80
2022/07/14 01:31:17;;;;;;;50.28;47.67;;;;;;;26.02;38.48;102006.75;4953862;29;20039;-83
2022/07/14 01:33:43;;;;;;;51.58;48.67;;;;;;;26.00;38.52;102000.72;4955121;28;20050;-83
2022/07/14 01:36:08;;;;;;;51.13;48.17;;;;;;;25.97;38.60;101995.81;4953964;29;20438;-83
2022/07/14 01:38:33;;;;;;;49.22;46.38;;;;;;;25.95;38.44;102006.41;4955080;28;20528;-80
2022/07/14 01:40:59;;;;;;;47.03;44.42;;;;;;;25.92;38.53;101998.72;4955198;28;20601;-82
2022/07/14 01:43:25;;;;;;;48.67;46.22;;;;;;;25.89;38.41;101985.53;4958508;28;20442;-82
2022/07/14 01:45:51;;;;;;;48.15;45.63;;;;;;;25.88;38.40;101992.22;4958944;28;20035;-83
2022/07/14 01:48:16;;;;;;;46.10;43.70;;;;;;;25.85;38.25;101987.28;4973798;28;20185;-81
2022/07/14 01:50:41;;;;;;;49.17;46.47;;;;;;;25.83;38.37;101993.13;4958939;28;20027;-81
2022/07/14 01:53:07;;;;;;;50.80;48.20;;;;;;;25.81;38.64;101989.03;4959058;28;20059;-81
2022/07/14 01:55:32;;;;;;;48.67;45.63;;;;;;;25.78;38.29;101989.66;4973441;28;20036;-83
2022/07/14 01:57:58;;;;;;;51.10;48.00;;;;;;;25.75;38.12;101991.09;4958391;28;20043;-77
2022/07/14 02:00:24;;;;;;;45.65;43.35;;;;;;;25.73;38.63;101992.53;4958282;28;20395;-82
2022/07/14 02:02:49;;;;;;;48.17;45.75;;;;;;;25.71;38.81;101994.84;4958486;28;20031;-83
2022/07/14 02:05:15;;;;;;;50.83;48.13;;;;;;;25.68;38.36;101988.78;4957047;28;20054;-82
2022/07/14 02:07:40;;;;;;;47.40;44.90;;;;;;;25.65;38.40;101980.28;4958305;28;20124;-82
2022/07/14 02:12:51;;;;;;;47.63;44.85;;;;;;;25.60;38.41;101988.72;4959024;29;20408;-83
2022/07/14 02:15:17;;;;;;;48.72;45.20;;;;;;;25.58;38.65;101982.69;4958630;28;20039;-82
2022/07/14 02:17:42;;;;;;;47.28;44.97;;;;;;;25.55;38.60;101986.91;4958251;28;20098;-79
2022/07/14 02:20:09;;;;;;;48.88;46.28;;;;;;;25.54;38.76;101987.22;4957171;28;20067;-82
2022/07/14 02:22:34;;;;;;;45.85;43.22;;;;;;;25.51;38.84;101987.84;4956966;29;20049;-81
2022/07/14 02:25:00;;;;;;;49.42;46.30;;;;;;;25.48;38.47;101990.13;4958752;28;20035;-78
2022/07/14 02:27:25;;;;;;;48.10;45.55;;;;;;;25.46;38.81;101980.50;4958587;28;20039;-82
2022/07/14 02:29:51;;;;;;;48.90;46.40;;;;;;;25.44;38.61;101985.50;4958304;28;20443;-82
2022/07/14 02:32:16;;;;;;;50.03;47.45;;;;;;;25.41;39.03;101978.66;4957962;28;20062;-82
2022/07/14 02:34:42;;;;;;;48.22;45.80;;;;;;;25.38;38.64;101968.22;4958000;28;20035;-83
2022/07/14 02:37:07;;;;;;;47.15;44.50;;;;;;;25.36;38.64;101967.72;4958087;28;20027;-82
2022/07/14 02:39:32;;;;;;;49.83;46.55;;;;;;;25.34;38.84;101958.91;4957926;28;20031;-82
2022/07/14 02:41:58;;;;;;;46.50;43.88;;;;;;;25.32;39.15;101961.16;4957662;28;20046;-81
2022/07/14 02:44:23;;;;;;;50.55;47.45;;;;;;;25.30;38.96;101957.09;4956779;29;20383;-83
2022/07/14 02:46:49;;;;;;;49.47;46.97;;;;;;;25.28;38.77;101954.66;4957566;28;20050;-82
2022/07/14 02:49:14;;;;;;;47.28;44.60;;;;;;;25.24;38.79;101954.44;4957729;28;20039;-83
2022/07/14 02:51:39;;;;;;;45.95;43.45;;;;;;;25.23;39.19;101955.59;4972506;28;20036;-81
2022/07/14 02:54:05;;;;;;;49.03;46.22;;;;;;;25.20;38.97;101963.66;4956865;28;20475;-82
2022/07/14 02:56:30;;;;;;;46.40;43.80;;;;;;;25.18;38.71;101952.13;4956862;29;20042;-80
2022/07/14 02:58:56;;;;;;;45.88;43.53;;;;;;;25.16;39.21;101951.59;4958093;28;20089;-81
2022/07/14 03:01:21;;;;;;;47.25;44.42;;;;;;;25.13;39.05;101964.09;4957597;28;20043;-82
2022/07/14 03:03:47;;;;;;;46.05;43.55;;;;;;;25.11;38.85;101960.81;4957252;28;20035;-83
2022/07/14 03:06:15;;;;;;;48.50;45.80;;;;;;;25.08;39.23;101955.91;4957323;28;20035;-82
2022/07/14 03:08:41;;;;;;;45.55;43.30;;;;;;;25.05;39.05;101954.59;4956392;29;20031;-80
2022/07/14 03:11:07;;;;;;;47.08;44.15;;;;;;;25.03;38.83;101944.97;4957293;28;20051;-83
2022/07/14 03:13:32;;;;;;;45.60;43.00;;;;;;;25.01;39.07;101944.47;4957436;28;20035;-84
2022/07/14 03:15:58;;;;;;;47.88;45.17;;;;;;;24.97;39.43;101941.50;4956986;28;20376;-82
2022/07/14 03:18:24;;;;;;;50.08;47.53;;;;;;;24.96;38.92;101939.06;4956944;28;20435;-82
2022/07/14 03:20:51;;;;;;;46.88;44.42;;;;;;;24.94;39.45;101938.53;4957387;28;20035;-82
2022/07/14 03:23:16;;;;;;;49.25;46.47;;;;;;;24.91;39.19;101936.41;4957112;28;20039;-82
2022/07/14 03:25:42;;;;;;;47.00;44.47;;;;;;;24.89;39.02;101941.41;4956963;28;20543;-82
2022/07/14 03:28:08;;;;;;;46.20;43.70;;;;;;;24.86;39.35;101934.56;4956868;28;20131;-82
2022/07/14 03:30:33;;;;;;;46.53;44.22;;;;;;;24.83;39.16;101933.25;4971644;28;20035;-83
2022/07/14 03:32:58;;;;;;;45.03;42.30;;;;;;;24.80;39.51;101931.09;4956817;28;20043;-83
2022/07/14 03:35:24;;;;;;;43.05;40.95;;;;;;;24.77;39.14;101926.22;4956791;28;20487;-82
2022/07/14 03:37:50;;;;;;;47.40;44.72;;;;;;;24.75;39.59;101925.69;4956748;28;20066;-83
2022/07/14 03:40:15;;;;;;;47.88;44.95;;;;;;;24.73;39.32;101939.00;4956763;28;20046;-83
2022/07/14 03:42:40;;;;;;;46.55;43.95;;;;;;;24.70;39.38;101934.09;4956360;28;20118;-84
2022/07/14 03:45:06;;;;;;;43.92;41.63;;;;;;;24.68;39.32;101938.31;4955515;29;20113;-79
2022/07/14 03:47:32;;;;;;;44.95;41.97;;;;;;;24.66;39.54;101948.84;4955557;28;20058;-82
2022/07/14 03:49:58;;;;;;;43.17;40.95;;;;;;;24.63;39.49;101943.94;4956504;28;20117;-83
2022/07/14 03:52:24;;;;;;;47.10;44.65;;;;;;;24.60;39.13;101951.72;4956520;28;20163;-82
2022/07/14 03:54:49;;;;;;;43.92;41.53;;;;;;;24.57;39.34;101951.53;4956763;28;20108;-84
2022/07/14 03:57:15;;;;;;;43.67;40.83;;;;;;;24.55;39.30;101960.09;4956407;28;20094;-83
2022/07/14 03:59:40;;;;;;;45.50;42.80;;;;;;;24.52;39.23;101954.34;4956655;28;20066;-83
2022/07/14 04:02:07;;;;;;;43.60;40.92;;;;;;;24.50;39.84;101951.09;4956886;28;20053;-83
2022/07/14 04:04:33;;;;;;;42.72;40.30;;;;;;;24.47;39.51;101949.78;4955815;28;20039;-82
2022/07/14 04:06:58;;;;;;;42.58;40.05;;;;;;;24.44;39.68;101949.53;4956318;28;20035;-84
2022/07/14 04:09:24;;;;;;;42.38;40.08;;;;;;;24.43;39.42;101948.72;4955805;28;20115;-83
2022/07/14 04:11:49;;;;;;;44.47;42.28;;;;;;;24.39;39.82;101954.06;4954854;29;20058;-84
2022/07/14 04:14:15;;;;;;;45.20;42.78;;;;;;;24.37;39.89;101939.72;4956277;28;20567;-84
2022/07/14 04:16:40;;;;;;;43.88;41.40;;;;;;;24.35;39.70;101938.41;4971056;28;20399;-84
2022/07/14 04:19:07;;;;;;;44.63;42.33;;;;;;;24.32;39.51;101934.31;4956154;28;20035;-80
2022/07/14 04:21:32;;;;;;;42.17;39.67;;;;;;;24.30;39.54;101935.75;4956223;28;20379;-82
2022/07/14 04:23:59;;;;;;;42.83;39.90;;;;;;;24.29;39.47;101951.50;4956638;28;20031;-79
2022/07/14 04:26:24;;;;;;;42.78;40.55;;;;;;;24.26;39.86;101940.22;4955999;28;20043;-79
2022/07/14 04:28:50;;;;;;;41.25;39.05;;;;;;;24.25;39.69;101938.59;4955199;29;20031;-81
2022/07/14 04:31:16;;;;;;;44.67;42.10;;;;;;;24.22;39.57;101941.94;4955780;28;20070;-82
2022/07/14 04:33:41;;;;;;;42.33;39.83;;;;;;;24.19;40.07;101935.09;4955819;28;20043;-81
2022/07/14 04:36:08;;;;;;;43.67;41.08;;;;;;;24.17;40.01;101931.84;4955508;28;20038;-81
2022/07/14 04:38:34;;;;;;;41.65;39.53;;;;;;;24.14;39.68;101930.53;4955942;28;20118;-81
2022/07/14 04:41:00;;;;;;;41.88;39.30;;;;;;;24.11;39.98;101933.88;4956377;28;20070;-77
2022/07/14 04:43:26;;;;;;;43.30;40.80;;;;;;;24.10;39.96;101936.97;4971073;28;20384;-81
2022/07/14 04:45:51;;;;;;;44.00;41.35;;;;;;;24.07;39.82;101943.09;4956295;28;20038;-81
2022/07/14 04:48:17;;;;;;;42.00;39.85;;;;;;;24.05;40.20;101939.81;4955555;28;20392;-78
2022/07/14 04:53:26;;;;;;;42.05;39.70;;;;;;;24.01;39.82;101939.59;4955538;29;20058;-81
2022/07/14 04:55:53;;;;;;;45.88;42.72;;;;;;;23.99;39.79;101941.84;4956016;28;20110;-82
2022/07/14 04:58:19;;;;;;;42.97;40.03;;;;;;;23.96;39.76;101943.28;4955234;28;20035;-80
2022/07/14 05:00:44;;;;;;;42.38;39.63;;;;;;;23.94;40.37;101941.97;4955462;28;20058;-81
2022/07/14 05:03:10;;;;;;;43.45;40.95;;;;;;;23.93;39.85;101951.34;4955356;28;20082;-82
2022/07/14 05:05:35;;;;;;;43.67;41.05;;;;;;;23.92;39.89;101942.25;4955363;28;20470;-81
2022/07/14 05:08:00;;;;;;;42.35;40.15;;;;;;;23.89;40.43;101962.19;4955775;28;20126;-78
2022/07/14 05:10:26;;;;;;;41.20;38.85;;;;;;;23.87;39.93;101953.38;4955164;28;20134;-83
2022/07/14 05:12:51;;;;;;;44.95;42.17;;;;;;;23.86;39.87;101953.66;4970531;28;20050;-81
2022/07/14 05:15:17;;;;;;;40.97;38.50;;;;;;;23.84;40.33;101956.75;4954147;29;20044;-76
2022/07/14 05:17:43;;;;;;;41.58;39.38;;;;;;;23.82;40.20;101953.47;4957450;28;20039;-81
2022/07/14 05:20:09;;;;;;;40.40;37.92;;;;;;;23.79;40.01;101948.56;4974037;28;20035;-81
2022/07/14 05:22:36;;;;;;;44.50;41.28;;;;;;;23.78;40.44;101951.63;4959155;28;20035;-81
2022/07/14 05:25:05;;;;;;;43.45;41.25;;;;;;;23.75;40.04;101947.53;4959218;28;20038;-78
2022/07/14 05:27:30;;;;;;;43.50;40.90;;;;;;;23.75;40.23;101947.53;4959528;28;20094;-82
2022/07/14 05:29:56;;;;;;;43.65;40.60;;;;;;;23.74;40.83;101946.72;4974799;28;20372;-81
2022/07/14 05:32:21;;;;;;;44.20;41.42;;;;;;;23.70;40.81;101942.88;4974309;28;20035;-80
2022/07/14 05:34:47;;;;;;;42.75;39.80;;;;;;;23.68;40.82;101942.34;4959275;28;20037;-82
2022/07/14 05:37:12;;;;;;;42.88;40.38;;;;;;;23.67;40.62;101940.72;4959014;28;20122;-81
2022/07/14 05:39:38;;;;;;;40.58;38.10;;;;;;;23.65;40.86;101942.97;4959428;28;20036;-84
2022/07/14 05:42:04;;;;;;;42.40;40.10;;;;;;;23.65;40.91;101951.25;4959384;28;20042;-84
2022/07/14 05:44:30;;;;;;;43.80;41.38;;;;;;;23.62;41.22;101957.38;4959746;28;20110;-87
2022/07/14 05:46:55;;;;;;;39.78;37.47;;;;;;;23.62;41.02;101962.06;4959656;28;20035;-82
2022/07/14 05:49:20;;;;;;;42.03;38.95;;;;;;;23.62;41.00;101962.88;4958924;28;20027;-78
2022/07/14 05:51:46;;;;;;;41.30;39.20;;;;;;;23.62;41.16;101954.59;4958566;28;20399;-83
2022/07/14 05:54:12;;;;;;;41.08;38.55;;;;;;;23.61;41.30;101958.50;4958847;28;20074;-81
2022/07/14 05:56:38;;;;;;;42.22;39.63;;;;;;;23.58;41.32;101952.75;4958637;28;20043;-82
2022/07/14 05:59:03;;;;;;;40.92;38.55;;;;;;;23.52;41.92;101943.75;4958623;28;20459;-80
2022/07/14 06:01:28;;;;;;;45.10;42.47;;;;;;;23.47;41.89;101950.16;4958559;28;20428;-80
2022/07/14 06:03:56;;;;;;;42.85;39.97;;;;;;;23.48;41.59;101957.31;4958708;28;20046;-78
2022/07/14 06:06:22;;;;;;;41.67;39.28;;;;;;;23.47;41.49;101963.94;4973702;28;20069;-75
2022/07/14 06:08:47;;;;;;;42.40;40.03;;;;;;;23.48;41.38;101956.50;4958023;28;20066;-81
2022/07/14 06:11:13;;;;;;;38.67;36.58;;;;;;;23.51;41.20;101953.13;4956980;29;20472;-80
2022/07/14 06:13:40;;;;;;;42.65;40.33;;;;;;;23.54;41.25;101966.34;4958203;28;20055;-79
2022/07/14 06:16:06;;;;;;;40.70;38.00;;;;;;;23.55;41.46;101954.97;4958243;28;20469;-82
2022/07/14 06:18:31;;;;;;;41.78;38.95;;;;;;;23.57;41.34;101957.44;4958413;28;20050;-82
2022/07/14 06:20:57;;;;;;;40.38;38.28;;;;;;;23.57;41.36;101962.97;4958178;29;20043;-84
2022/07/14 06:23:23;;;;;;;38.28;35.92;;;;;;;23.57;41.51;101957.44;4958042;28;20027;-75
2022/07/14 06:25:48;;;;;;;41.00;38.78;;;;;;;23.57;41.73;101956.63;4958117;28;20023;-79
2022/07/14 06:28:14;;;;;;;43.38;40.25;;;;;;;23.59;41.67;101959.91;4956147;28;20043;-81
2022/07/14 06:30:40;;;;;;;42.40;39.63;;;;;;;23.57;42.06;101949.19;4957739;28;20460;-80
2022/07/14 06:33:06;;;;;;;42.60;39.55;;;;;;;23.57;41.97;101951.94;4957692;28;20041;-80
2022/07/14 06:35:31;;;;;;;41.78;39.35;;;;;;;23.59;41.56;101957.16;4957606;28;20028;-78
2022/07/14 06:37:57;;;;;;;43.25;40.28;;;;;;;23.59;41.76;101959.91;4957223;28;20543;-80
2022/07/14 06:40:23;;;;;;;40.58;38.38;;;;;;;23.59;42.13;101959.91;4957248;28;20035;-75
2022/07/14 06:42:48;;;;;;;41.72;39.42;;;;;;;23.60;41.93;101962.34;4957311;28;20035;-80
2022/07/14 06:45:14;;;;;;;40.72;38.55;;;;;;;23.64;41.90;101977.19;4957590;28;20054;-79
2022/07/14 06:47:40;;;;;;;43.28;40.65;;;;;;;23.66;41.82;101957.56;4957817;28;20039;-77
2022/07/14 06:50:06;;;;;;;41.53;39.30;;;;;;;23.70;41.75;101959.44;4957288;28;20492;-79
2022/07/14 06:52:32;;;;;;;40.38;38.00;;;;;;;23.73;41.71;101958.84;4957376;28;20048;-81
2022/07/14 06:54:59;;;;;;;42.15;39.75;;;;;;;23.77;41.84;101956.31;4957251;28;20039;-79
2022/07/14 06:57:25;;;;;;;42.42;39.50;;;;;;;23.77;41.54;101961.84;4957010;28;20034;-75
2022/07/14 06:59:50;;;;;;;42.53;39.90;;;;;;;23.74;41.58;101957.75;4956944;28;20432;-81
2022/07/14 07:02:15;;;;;;;43.83;40.58;;;;;;;23.77;41.96;101955.50;4957016;28;20038;-79
2022/07/14 07:04:41;;;;;;;44.22;41.42;;;;;;;23.76;41.74;101954.66;4955854;29;20035;-80
2022/07/14 07:07:06;;;;;;;41.92;39.50;;;;;;;23.74;42.25;101956.94;4956644;28;20400;-78
2022/07/14 07:09:32;;;;;;;43.97;41.53;;;;;;;23.73;42.26;101950.56;4956861;28;20087;-78
2022/07/14 07:11:57;;;;;;;41.75;39.10;;;;;;;23.77;42.23;101948.03;4971780;28;20075;-78
2022/07/14 07:14:22;;;;;;;42.83;40.30;;;;;;;23.82;41.69;101950.72;4957144;28;20081;-79
2022/07/14 07:16:49;;;;;;;41.17;38.90;;;;;;;23.87;42.21;101939.59;4956705;28;20036;-79
2022/07/14 07:19:16;;;;;;;41.78;38.85;;;;;;;23.89;42.24;101936.50;4956485;28;20114;-79
2022/07/14 07:21:41;;;;;;;42.15;39.65;;;;;;;23.88;41.97;101935.69;4955460;29;20031;-75
2022/07/14 07:24:07;;;;;;;44.33;41.72;;;;;;;23.90;41.68;101938.16;4956877;28;20050;-77
2022/07/14 07:26:35;;;;;;;44.08;41.45;;;;;;;23.92;41.60;101935.91;4956829;28;20054;-78
2022/07/14 07:29:02;;;;;;;42.40;40.20;;;;;;;23.97;42.00;101941.34;4971252;28;20042;-79
2022/07/14 07:31:27;;;;;;;44.40;41.80;;;;;;;24.01;42.03;101933.25;4956470;28;20059;-77
2022/07/14 07:33:53;;;;;;;45.65;42.85;;;;;;;24.06;41.77;101933.16;4971356;28;20074;-81
2022/07/14 07:36:19;;;;;;;46.40;43.45;;;;;;;24.11;42.07;101927.53;4956263;28;20035;-79
2022/07/14 07:38:45;;;;;;;43.63;40.90;;;;;;;24.15;41.93;101923.06;4956219;28;20035;-80
2022/07/14 07:41:10;;;;;;;44.03;41.60;;;;;;;24.19;42.01;101924.91;4955366;28;20060;-80
2022/07/14 07:43:36;;;;;;;45.55;42.97;;;;;;;24.22;41.67;101917.94;4955388;28;20038;-79
2022/07/14 07:46:05;;;;;;;45.65;42.83;;;;;;;24.25;41.61;101917.31;4956138;28;20042;-77
2022/07/14 07:48:32;;;;;;;43.08;40.63;;;;;;;24.30;41.39;101921.94;4970831;28;20027;-75
2022/07/14 07:50:57;;;;;;;45.15;42.15;;;;;;;24.35;42.10;101917.13;4955822;28;20035;-76
2022/07/14 07:53:23;;;;;;;45.95;43.35;;;;;;;24.39;41.92;101920.91;4955888;28;20050;-72
2022/07/14 07:55:48;;;;;;;45.17;42.70;;;;;;;24.46;41.38;101908.66;4955693;28;20071;-72
2022/07/14 07:58:14;;;;;;;45.25;42.83;;;;;;;24.52;41.23;101921.22;4955902;28;20035;-72
2022/07/14 08:00:40;;;;;;;46.15;43.47;;;;;;;24.55;41.82;101913.13;4955651;28;20027;-72
2022/07/14 08:03:05;;;;;;;47.55;44.80;;;;;;;24.60;41.45;101904.75;4955661;28;20037;-78
2022/07/14 08:05:32;;;;;;;45.25;42.30;;;;;;;24.65;41.31;101919.59;4955903;28;20035;-76
2022/07/14 08:07:59;;;;;;;44.10;41.45;;;;;;;24.65;40.74;101911.28;4955356;29;20046;-77
2022/07/14 08:10:24;;;;;;;45.88;43.28;;;;;;;24.67;40.83;101909.00;4955388;28;20035;-77
2022/07/14 08:12:50;;;;;;;42.67;40.58;;;;;;;24.70;40.87;101906.47;4955925;28;20158;-78
2022/07/14 08:15:16;;;;;;;45.58;42.70;;;;;;;24.74;41.26;101906.66;4954304;28;20035;-76
2022/07/14 08:17:41;;;;;;;46.85;44.28;;;;;;;24.77;40.63;101904.09;4955133;28;20035;-75
2022/07/14 08:20:09;;;;;;;46.35;43.42;;;;;;;24.86;40.56;101895.06;4955657;28;20527;-76
2022/07/14 08:22:35;;;;;;;44.97;42.17;;;;;;;24.91;40.41;101897.72;4954075;28;20474;-76
2022/07/14 08:25:01;;;;;;;48.03;45.53;;;;;;;24.95;40.73;101902.31;4955458;28;20039;-76
2022/07/14 08:27:26;;;;;;;45.60;42.97;;;;;;;25.01;40.65;101900.22;4955541;28;20038;-78
2022/07/14 08:29:52;;;;;;;47.00;44.65;;;;;;;25.07;40.68;101898.16;4955487;28;20032;-78
2022/07/14 08:32:59;;;;;;;50.25;47.40;;;;;;;25.14;40.96;101895.78;4955612;28;20081;-80
2022/07/14 08:35:25;;;;;;;47.97;45.30;;;;;;;25.21;40.35;101899.78;4954902;28;20113;-78
2022/07/14 08:37:52;;;;;;;51.47;48.53;;;;;;;25.28;40.33;101895.75;4954965;28;20559;-78
2022/07/14 08:40:20;;;;;;;48.45;45.30;;;;;;;25.34;38.92;101891.72;4955275;28;20031;-77
2022/07/14 08:42:48;;;;;;;49.00;46.10;;;;;;;25.37;38.62;101894.66;4955261;28;20042;-77
2022/07/14 08:45:18;;;;;;;46.60;44.00;;;;;;;25.37;39.77;101894.66;4955224;28;20460;-79
2022/07/14 08:47:45;;;;;;;48.55;45.85;;;;;;;25.45;39.55;101891.16;4954742;28;20038;-77
2022/07/14 08:50:13;;;;;;;48.60;45.85;;;;;;;25.51;39.54;101880.78;4955665;28;20118;-79
2022/07/14 08:52:41;;;;;;;48.53;45.78;;;;;;;25.57;39.42;101884.22;4955698;28;20035;-76
2022/07/14 08:55:09;;;;;;;46.75;44.25;;;;;;;25.61;40.18;101877.75;4953732;29;20031;-79
2022/07/14 08:57:35;;;;;;;49.33;46.83;;;;;;;25.68;40.13;101878.09;4953734;29;20123;-78
2022/07/14 09:00:03;;;;;;;49.20;46.75;;;;;;;25.75;40.16;101885.94;4954242;28;20138;-78
2022/07/14 09:02:29;;;;;;;51.42;48.72;;;;;;;25.84;40.62;101884.03;4954906;28;20031;-80
2022/07/14 09:04:54;;;;;;;50.42;47.72;;;;;;;25.90;40.47;101882.81;4954572;28;20369;-78
2022/07/14 09:07:56;;;;;;;49.90;47.15;;;;;;;26.01;39.95;101874.22;4954858;28;20034;-80
2022/07/14 09:10:25;;;;;;;50.83;48.25;;;;;;;26.06;40.13;101874.06;4956706;28;20047;-81
2022/07/14 09:13:13;;;;;;;51.83;49.08;;;;;;;26.16;39.01;101886.78;4955399;28;20035;-78
2022/07/14 09:15:45;;;;;;;52.93;50.07;;;;;;;26.19;38.53;101884.19;4954979;28;20023;-81
2022/07/14 09:18:17;;;;;;;53.95;51.05;;;;;;;26.27;38.47;101888.13;4954865;28;20451;-81
2022/07/14 09:20:43;;;;;;;50.70;48.10;;;;;;;26.31;39.08;101875.28;4955173;29;20038;-83
2022/07/14 09:23:09;;;;;;;50.92;48.47;;;;;;;26.38;39.09;101878.38;4952975;29;20035;-79
2022/07/14 09:25:35;;;;;;;53.13;50.10;;;;;;;26.45;38.94;101864.84;4969559;28;20062;-79
2022/07/14 09:28:02;;;;;;;52.58;49.88;;;;;;;26.50;39.02;101870.25;4955307;28;20392;-78
2022/07/14 09:30:28;;;;;;;51.45;48.72;;;;;;;26.59;37.66;101869.50;4970325;28;20059;-84
2022/07/14 09:32:56;;;;;;;51.80;49.22;;;;;;;26.62;37.11;101880.72;4955174;28;20027;-82
2022/07/14 09:35:34;;;;;;;50.40;47.90;;;;;;;26.68;37.44;101876.66;4955123;28;20192;-83
2022/07/14 09:38:12;;;;;;;50.80;48.38;;;;;;;26.74;38.23;101872.59;4955456;28;20050;-81
2022/07/14 09:40:37;;;;;;;49.67;47.17;;;;;;;26.82;36.58;101876.50;4955715;28;20053;-83
2022/07/14 09:43:04;;;;;;;52.80;50.00;;;;;;;26.88;37.92;101885.47;4955674;28;20031;-82
2022/07/14 09:45:37;;;;;;;51.67;49.08;;;;;;;26.94;38.33;101882.22;4970734;28;20047;-85
2022/07/14 09:48:09;;;;;;;51.97;49.38;;;;;;;27.01;38.15;101880.91;4954979;28;20111;-84
2022/07/14 09:50:50;;;;;;;53.00;50.40;;;;;;;27.09;37.21;101880.91;4955725;28;20039;-84
2022/07/14 09:53:25;;;;;;;54.13;51.42;;;;;;;27.16;37.36;101881.19;4954900;28;20086;-83
2022/07/14 09:55:53;;;;;;;54.50;51.67;;;;;;;27.23;37.67;101889.06;4954838;28;20054;-82
2022/07/14 09:58:20;;;;;;;53.00;50.35;;;;;;;27.30;37.19;101888.56;4955996;28;20031;-82
2022/07/14 10:01:00;;;;;;;55.95;53.05;;;;;;;27.37;37.60;101886.13;4955776;29;20142;-83
2022/07/14 10:03:28;;;;;;;56.10;53.40;;;;;;;27.43;37.63;101884.78;4957085;28;20031;-86
2022/07/14 10:05:54;;;;;;;54.15;51.63;;;;;;;27.51;37.48;101888.69;4958895;28;20031;-83
2022/07/14 10:08:26;;;;;;;53.90;51.30;;;;;;;27.57;37.50;101887.38;4958838;28;20039;-78
2022/07/14 10:10:53;;;;;;;54.80;51.92;;;;;;;27.63;36.53;101889.63;4958807;28;20069;-86
2022/07/14 10:13:20;;;;;;;53.20;50.60;;;;;;;27.68;37.04;101887.81;4959106;28;20031;-75
2022/07/14 10:15:48;;;;;;;57.83;54.95;;;;;;;27.75;36.69;101885.34;4958303;28;20057;-80
2022/07/14 10:18:13;;;;;;;55.30;52.53;;;;;;;27.80;36.78;101897.09;4958157;28;20027;-78
2022/07/14 10:20:40;;;;;;;56.00;53.30;;;;;;;27.86;36.57;101894.16;4956400;29;20395;-77
2022/07/14 10:23:05;;;;;;;56.28;53.47;;;;;;;27.91;36.86;101897.56;4957601;28;20027;-79
2022/07/14 10:25:31;;;;;;;55.50;52.85;;;;;;;27.95;36.48;101892.97;4957900;28;20031;-78
2022/07/14 10:27:57;;;;;;;57.88;55.03;;;;;;;28.01;36.38;101905.53;4957384;28;20082;-77
2022/07/14 10:30:38;;;;;;;58.80;55.97;;;;;;;28.08;36.56;101895.88;4956220;29;20399;-80
2022/07/14 10:33:24;;;;;;;58.35;55.38;;;;;;;28.14;36.35;101900.88;4957815;28;20034;-78
2022/07/14 10:36:17;;;;;;;59.75;56.95;;;;;;;28.19;36.83;101886.81;4957480;28;20038;-77
2022/07/14 10:39:08;;;;;;;58.08;55.17;;;;;;;28.23;35.69;101892.50;4957454;28;20047;-78
2022/07/14 10:42:00;;;;;;;58.83;55.83;;;;;;;28.28;34.88;101886.78;4957441;28;20113;-80
2022/07/14 10:44:29;;;;;;;58.90;56.10;;;;;;;28.31;35.55;101885.28;4957239;28;20116;-80
2022/07/14 10:47:12;;;;;;;57.88;54.85;;;;;;;28.37;35.24;101884.72;4956000;29;20023;-76
2022/07/14 10:50:10;;;;;;;58.45;55.55;;;;;;;28.43;35.56;101888.16;4956995;28;20484;-80
2022/07/14 10:52:38;;;;;;;59.65;56.65;;;;;;;28.47;35.45;101886.34;4957128;28;20494;-77
2022/07/14 10:55:23;;;;;;;61.38;58.17;;;;;;;28.52;35.77;101874.22;4955346;28;20035;-78
2022/07/14 10:58:04;;;;;;;59.03;56.08;;;;;;;28.58;35.56;101884.00;4957540;28;20027;-76
2022/07/14 11:00:39;;;;;;;59.20;56.30;;;;;;;28.63;36.04;101889.34;4956984;28;20031;-86
2022/07/14 11:03:18;;;;;;;58.33;55.53;;;;;;;28.69;35.66;101883.25;4956609;28;20027;-86
2022/07/14 11:06:11;;;;;;;63.83;60.67;;;;;;;28.76;35.75;101888.25;4955898;29;20118;-83
2022/07/14 11:08:45;;;;;;;56.95;54.25;;;;;;;28.82;35.52;101886.91;4957659;28;20098;-83
2022/07/14 11:11:23;;;;;;;60.10;57.20;;;;;;;28.89;35.69;101889.13;4957296;28;20050;-79
2022/07/14 11:14:00;;;;;;;62.42;58.83;;;;;;;28.94;35.92;101890.91;4957070;28;20452;-77
2022/07/14 11:16:45;;;;;;;61.65;58.50;;;;;;;29.00;36.08;101879.22;4971134;28;20042;-76